sensor_id;sensor_type;location;lat;lon;timestamp;P1;durP1;ratioP1;P2;durP2;ratioP2
17592;SDS011;8915;51.760;14.300;2022-09-29T00:00:00;5.27;;;3.90;;
17592;SDS011;8915;51.760;14.300;2022-09-29T00:02:30;5.83;;;3.83;;
17592;SDS011;8915;51.760;14.300;2022-09-29T00:04:56;4.70;;;3.80;;
17592;SDS011;8915;51.760;14.300;2022-09-29T00:07:22;6.30;;;4.00;;
17592;SDS011;8915;51.760;14.300;2022-09-29T00:09:49;5.10;;;3.80;;
17592;SDS011;8915;51.760;14.300;2022-09-29T00:12:15;4.33;;;3.50;;
17592;SDS011;8915;51.760;14.300;2022-09-29T00:14:43;7.20;;;4.00;;
17592;SDS011;8915;51.760;14.300;2022-09-29T00:17:09;5.70;;;3.60;;
17592;SDS011;8915;51.760;14.300;2022-09-29T00:19:36;4.47;;;3.47;;
17592;SDS011;8915;51.760;14.300;2022-09-29T00:22:03;5.63;;;3.90;;
17592;SDS011;8915;51.760;14.300;2022-09-29T00:24:29;5.80;;;4.50;;
17592;SDS011;8915;51.760;14.300;2022-09-29T00:26:55;6.57;;;4.50;;
17592;SDS011;8915;51.760;14.300;2022-09-29T00:29:22;8.67;;;4.47;;
17592;SDS011;8915;51.760;14.300;2022-09-29T00:31:50;4.47;;;3.43;;
17592;SDS011;8915;51.760;14.300;2022-09-29T00:34:16;6.53;;;3.93;;
17592;SDS011;8915;51.760;14.300;2022-09-29T00:36:43;4.60;;;3.50;;
17592;SDS011;8915;51.760;14.300;2022-09-29T00:39:10;6.70;;;4.27;;
17592;SDS011;8915;51.760;14.300;2022-09-29T00:41:37;5.10;;;3.83;;
17592;SDS011;8915;51.760;14.300;2022-09-29T00:44:05;5.10;;;3.50;;
17592;SDS011;8915;51.760;14.300;2022-09-29T00:46:54;5.97;;;3.80;;
17592;SDS011;8915;51.760;14.300;2022-09-29T00:49:25;4.90;;;3.43;;
17592;SDS011;8915;51.760;14.300;2022-09-29T00:51:55;5.43;;;3.90;;
17592;SDS011;8915;51.760;14.300;2022-09-29T00:54:27;5.17;;;4.03;;
17592;SDS011;8915;51.760;14.300;2022-09-29T00:56:56;4.40;;;3.10;;
17592;SDS011;8915;51.760;14.300;2022-09-29T00:59:29;5.67;;;4.17;;
17592;SDS011;8915;51.760;14.300;2022-09-29T01:02:02;7.60;;;3.87;;
17592;SDS011;8915;51.760;14.300;2022-09-29T01:04:30;5.77;;;3.97;;
17592;SDS011;8915;51.760;14.300;2022-09-29T01:06:57;4.10;;;3.13;;
17592;SDS011;8915;51.760;14.300;2022-09-29T01:09:25;6.67;;;3.73;;
17592;SDS011;8915;51.760;14.300;2022-09-29T01:11:54;5.73;;;3.67;;
17592;SDS011;8915;51.760;14.300;2022-09-29T01:14:22;4.77;;;3.80;;
17592;SDS011;8915;51.760;14.300;2022-09-29T01:16:50;6.70;;;3.90;;
17592;SDS011;8915;51.760;14.300;2022-09-29T01:19:20;5.60;;;4.27;;
17592;SDS011;8915;51.760;14.300;2022-09-29T01:21:56;4.73;;;3.30;;
17592;SDS011;8915;51.760;14.300;2022-09-29T01:27:23;6.87;;;3.70;;
17592;SDS011;8915;51.760;14.300;2022-09-29T01:30:09;3.80;;;3.00;;
17592;SDS011;8915;51.760;14.300;2022-09-29T01:32:53;5.23;;;3.67;;
17592;SDS011;8915;51.760;14.300;2022-09-29T01:35:32;4.70;;;2.90;;
17592;SDS011;8915;51.760;14.300;2022-09-29T01:38:08;3.60;;;3.13;;
17592;SDS011;8915;51.760;14.300;2022-09-29T01:40:44;4.10;;;3.17;;
17592;SDS011;8915;51.760;14.300;2022-09-29T01:43:19;5.60;;;3.63;;
17592;SDS011;8915;51.760;14.300;2022-09-29T01:45:52;5.30;;;3.67;;
17592;SDS011;8915;51.760;14.300;2022-09-29T01:48:28;6.43;;;3.43;;
17592;SDS011;8915;51.760;14.300;2022-09-29T01:50:59;4.60;;;3.67;;
17592;SDS011;8915;51.760;14.300;2022-09-29T01:53:32;5.97;;;3.87;;
17592;SDS011;8915;51.760;14.300;2022-09-29T01:56:04;4.77;;;3.20;;
17592;SDS011;8915;51.760;14.300;2022-09-29T01:58:35;9.47;;;3.67;;
17592;SDS011;8915;51.760;14.300;2022-09-29T02:01:09;4.80;;;3.43;;
17592;SDS011;8915;51.760;14.300;2022-09-29T02:03:41;6.40;;;4.03;;
17592;SDS011;8915;51.760;14.300;2022-09-29T02:06:12;6.10;;;3.87;;
17592;SDS011;8915;51.760;14.300;2022-09-29T02:08:43;5.23;;;3.67;;
17592;SDS011;8915;51.760;14.300;2022-09-29T02:11:14;9.37;;;4.80;;
17592;SDS011;8915;51.760;14.300;2022-09-29T02:13:42;6.13;;;4.03;;
17592;SDS011;8915;51.760;14.300;2022-09-29T02:16:14;7.73;;;4.70;;
17592;SDS011;8915;51.760;14.300;2022-09-29T02:18:44;8.03;;;4.40;;
17592;SDS011;8915;51.760;14.300;2022-09-29T02:21:16;6.67;;;4.13;;
17592;SDS011;8915;51.760;14.300;2022-09-29T02:23:43;5.93;;;4.23;;
17592;SDS011;8915;51.760;14.300;2022-09-29T02:26:09;6.07;;;4.37;;
17592;SDS011;8915;51.760;14.300;2022-09-29T02:28:37;6.87;;;4.30;;
17592;SDS011;8915;51.760;14.300;2022-09-29T02:31:04;8.60;;;5.50;;
17592;SDS011;8915;51.760;14.300;2022-09-29T02:33:31;5.80;;;4.17;;
17592;SDS011;8915;51.760;14.300;2022-09-29T02:36:01;7.40;;;5.30;;
17592;SDS011;8915;51.760;14.300;2022-09-29T02:38:41;7.60;;;4.97;;
17592;SDS011;8915;51.760;14.300;2022-09-29T02:41:15;7.87;;;4.97;;
17592;SDS011;8915;51.760;14.300;2022-09-29T02:46:52;6.87;;;4.53;;
17592;SDS011;8915;51.760;14.300;2022-09-29T02:49:32;8.47;;;5.80;;
17592;SDS011;8915;51.760;14.300;2022-09-29T02:52:12;8.33;;;5.70;;
17592;SDS011;8915;51.760;14.300;2022-09-29T02:54:48;8.90;;;5.93;;
17592;SDS011;8915;51.760;14.300;2022-09-29T02:57:25;6.93;;;5.13;;
17592;SDS011;8915;51.760;14.300;2022-09-29T03:00:00;8.27;;;5.40;;
17592;SDS011;8915;51.760;14.300;2022-09-29T03:02:33;10.60;;;5.50;;
17592;SDS011;8915;51.760;14.300;2022-09-29T03:04:59;8.63;;;5.00;;
17592;SDS011;8915;51.760;14.300;2022-09-29T03:07:27;7.97;;;5.43;;
17592;SDS011;8915;51.760;14.300;2022-09-29T03:09:54;10.60;;;5.80;;
17592;SDS011;8915;51.760;14.300;2022-09-29T03:12:20;10.13;;;5.87;;
17592;SDS011;8915;51.760;14.300;2022-09-29T03:14:46;10.30;;;6.50;;
17592;SDS011;8915;51.760;14.300;2022-09-29T03:17:13;8.50;;;5.27;;
17592;SDS011;8915;51.760;14.300;2022-09-29T03:19:39;11.70;;;5.70;;
17592;SDS011;8915;51.760;14.300;2022-09-29T03:22:06;7.20;;;5.03;;
17592;SDS011;8915;51.760;14.300;2022-09-29T03:24:33;8.07;;;5.43;;
17592;SDS011;8915;51.760;14.300;2022-09-29T03:27:00;9.17;;;5.10;;
17592;SDS011;8915;51.760;14.300;2022-09-29T03:29:26;12.80;;;6.63;;
17592;SDS011;8915;51.760;14.300;2022-09-29T03:31:53;10.00;;;6.13;;
17592;SDS011;8915;51.760;14.300;2022-09-29T03:34:19;7.80;;;5.57;;
17592;SDS011;8915;51.760;14.300;2022-09-29T03:36:45;10.37;;;6.37;;
17592;SDS011;8915;51.760;14.300;2022-09-29T03:39:12;13.40;;;6.93;;
17592;SDS011;8915;51.760;14.300;2022-09-29T03:41:39;7.90;;;5.70;;
17592;SDS011;8915;51.760;14.300;2022-09-29T03:44:06;9.23;;;6.13;;
17592;SDS011;8915;51.760;14.300;2022-09-29T03:46:32;11.17;;;6.07;;
17592;SDS011;8915;51.760;14.300;2022-09-29T03:48:59;9.03;;;6.13;;
17592;SDS011;8915;51.760;14.300;2022-09-29T03:51:25;8.30;;;5.03;;
17592;SDS011;8915;51.760;14.300;2022-09-29T03:53:52;6.60;;;4.97;;
17592;SDS011;8915;51.760;14.300;2022-09-29T03:56:19;8.77;;;5.67;;
17592;SDS011;8915;51.760;14.300;2022-09-29T03:58:46;6.90;;;5.57;;
17592;SDS011;8915;51.760;14.300;2022-09-29T04:01:13;8.60;;;5.70;;
17592;SDS011;8915;51.760;14.300;2022-09-29T04:03:39;9.93;;;5.90;;
17592;SDS011;8915;51.760;14.300;2022-09-29T04:06:05;7.33;;;5.30;;
17592;SDS011;8915;51.760;14.300;2022-09-29T04:08:34;8.27;;;4.67;;
17592;SDS011;8915;51.760;14.300;2022-09-29T04:11:02;7.90;;;5.20;;
17592;SDS011;8915;51.760;14.300;2022-09-29T04:13:28;10.67;;;4.93;;
17592;SDS011;8915;51.760;14.300;2022-09-29T04:15:57;8.87;;;5.63;;
17592;SDS011;8915;51.760;14.300;2022-09-29T04:18:24;8.97;;;5.43;;
17592;SDS011;8915;51.760;14.300;2022-09-29T04:20:51;15.57;;;5.23;;
17592;SDS011;8915;51.760;14.300;2022-09-29T04:23:18;9.03;;;5.07;;
17592;SDS011;8915;51.760;14.300;2022-09-29T04:25:45;8.17;;;5.40;;
17592;SDS011;8915;51.760;14.300;2022-09-29T04:28:11;6.30;;;4.73;;
17592;SDS011;8915;51.760;14.300;2022-09-29T04:30:38;8.13;;;5.37;;
17592;SDS011;8915;51.760;14.300;2022-09-29T04:33:06;8.90;;;5.30;;
17592;SDS011;8915;51.760;14.300;2022-09-29T04:35:32;11.97;;;5.70;;
17592;SDS011;8915;51.760;14.300;2022-09-29T04:37:58;9.43;;;5.90;;
17592;SDS011;8915;51.760;14.300;2022-09-29T04:40:25;8.87;;;5.57;;
17592;SDS011;8915;51.760;14.300;2022-09-29T04:42:51;8.23;;;5.47;;
17592;SDS011;8915;51.760;14.300;2022-09-29T04:45:19;12.30;;;5.30;;
17592;SDS011;8915;51.760;14.300;2022-09-29T04:47:45;5.40;;;4.10;;
17592;SDS011;8915;51.760;14.300;2022-09-29T04:50:13;8.33;;;4.63;;
17592;SDS011;8915;51.760;14.300;2022-09-29T04:52:40;7.47;;;5.17;;
17592;SDS011;8915;51.760;14.300;2022-09-29T04:55:07;7.77;;;4.97;;
17592;SDS011;8915;51.760;14.300;2022-09-29T04:57:35;6.77;;;4.70;;
17592;SDS011;8915;51.760;14.300;2022-09-29T05:00:01;6.10;;;4.53;;
17592;SDS011;8915;51.760;14.300;2022-09-29T05:02:28;6.93;;;5.23;;
17592;SDS011;8915;51.760;14.300;2022-09-29T05:04:55;8.73;;;5.07;;
17592;SDS011;8915;51.760;14.300;2022-09-29T05:07:22;9.37;;;5.53;;
17592;SDS011;8915;51.760;14.300;2022-09-29T05:09:49;8.00;;;5.03;;
17592;SDS011;8915;51.760;14.300;2022-09-29T05:12:15;6.60;;;4.37;;
17592;SDS011;8915;51.760;14.300;2022-09-29T05:14:42;6.03;;;4.30;;
17592;SDS011;8915;51.760;14.300;2022-09-29T05:17:08;6.30;;;4.40;;
17592;SDS011;8915;51.760;14.300;2022-09-29T05:19:35;9.43;;;5.40;;
17592;SDS011;8915;51.760;14.300;2022-09-29T05:22:01;4.93;;;3.97;;
17592;SDS011;8915;51.760;14.300;2022-09-29T05:24:29;6.97;;;4.83;;
17592;SDS011;8915;51.760;14.300;2022-09-29T05:26:55;9.07;;;4.63;;
17592;SDS011;8915;51.760;14.300;2022-09-29T05:29:21;9.53;;;4.20;;
17592;SDS011;8915;51.760;14.300;2022-09-29T05:31:48;6.30;;;4.80;;
17592;SDS011;8915;51.760;14.300;2022-09-29T05:34:15;9.00;;;5.50;;
17592;SDS011;8915;51.760;14.300;2022-09-29T05:36:41;7.50;;;4.90;;
17592;SDS011;8915;51.760;14.300;2022-09-29T05:39:08;6.73;;;4.97;;
17592;SDS011;8915;51.760;14.300;2022-09-29T05:41:36;8.00;;;4.33;;
17592;SDS011;8915;51.760;14.300;2022-09-29T05:44:02;9.00;;;5.10;;
17592;SDS011;8915;51.760;14.300;2022-09-29T05:46:29;5.67;;;4.03;;
17592;SDS011;8915;51.760;14.300;2022-09-29T05:48:55;7.17;;;4.80;;
17592;SDS011;8915;51.760;14.300;2022-09-29T05:51:23;8.40;;;4.77;;
17592;SDS011;8915;51.760;14.300;2022-09-29T05:53:51;7.43;;;4.93;;
17592;SDS011;8915;51.760;14.300;2022-09-29T05:56:19;7.20;;;4.73;;
17592;SDS011;8915;51.760;14.300;2022-09-29T05:58:47;5.90;;;4.10;;
17592;SDS011;8915;51.760;14.300;2022-09-29T06:01:15;6.63;;;4.50;;
17592;SDS011;8915;51.760;14.300;2022-09-29T06:03:43;8.80;;;5.20;;
17592;SDS011;8915;51.760;14.300;2022-09-29T06:06:11;6.83;;;4.83;;
17592;SDS011;8915;51.760;14.300;2022-09-29T06:08:39;10.27;;;4.87;;
17592;SDS011;8915;51.760;14.300;2022-09-29T06:11:07;9.43;;;5.40;;
17592;SDS011;8915;51.760;14.300;2022-09-29T06:13:36;7.07;;;4.93;;
17592;SDS011;8915;51.760;14.300;2022-09-29T06:16:05;7.33;;;5.00;;
17592;SDS011;8915;51.760;14.300;2022-09-29T06:18:32;9.20;;;4.67;;
17592;SDS011;8915;51.760;14.300;2022-09-29T06:20:59;8.27;;;4.67;;
17592;SDS011;8915;51.760;14.300;2022-09-29T06:23:26;7.87;;;5.13;;
17592;SDS011;8915;51.760;14.300;2022-09-29T06:25:54;9.87;;;5.33;;
17592;SDS011;8915;51.760;14.300;2022-09-29T06:28:21;9.77;;;5.17;;
17592;SDS011;8915;51.760;14.300;2022-09-29T06:30:47;11.10;;;4.63;;
17592;SDS011;8915;51.760;14.300;2022-09-29T06:33:15;8.80;;;5.40;;
17592;SDS011;8915;51.760;14.300;2022-09-29T06:35:44;7.93;;;5.03;;
17592;SDS011;8915;51.760;14.300;2022-09-29T06:38:29;8.47;;;5.70;;
17592;SDS011;8915;51.760;14.300;2022-09-29T06:40:56;9.93;;;6.03;;
17592;SDS011;8915;51.760;14.300;2022-09-29T06:43:22;8.50;;;5.70;;
17592;SDS011;8915;51.760;14.300;2022-09-29T06:45:48;10.90;;;5.73;;
17592;SDS011;8915;51.760;14.300;2022-09-29T06:48:16;8.03;;;5.57;;
17592;SDS011;8915;51.760;14.300;2022-09-29T06:50:42;13.63;;;6.93;;
17592;SDS011;8915;51.760;14.300;2022-09-29T06:53:09;11.47;;;6.20;;
17592;SDS011;8915;51.760;14.300;2022-09-29T06:55:35;10.37;;;6.33;;
17592;SDS011;8915;51.760;14.300;2022-09-29T06:58:02;14.43;;;6.77;;
17592;SDS011;8915;51.760;14.300;2022-09-29T07:00:28;10.27;;;7.00;;
17592;SDS011;8915;51.760;14.300;2022-09-29T07:02:54;8.47;;;5.77;;
17592;SDS011;8915;51.760;14.300;2022-09-29T07:05:22;11.60;;;6.23;;
17592;SDS011;8915;51.760;14.300;2022-09-29T07:07:49;14.20;;;6.60;;
17592;SDS011;8915;51.760;14.300;2022-09-29T07:10:15;10.40;;;5.70;;
17592;SDS011;8915;51.760;14.300;2022-09-29T07:12:43;8.60;;;5.60;;
17592;SDS011;8915;51.760;14.300;2022-09-29T07:15:11;10.00;;;5.90;;
17592;SDS011;8915;51.760;14.300;2022-09-29T07:17:37;9.50;;;5.50;;
17592;SDS011;8915;51.760;14.300;2022-09-29T07:20:04;12.43;;;5.77;;
17592;SDS011;8915;51.760;14.300;2022-09-29T07:22:33;11.40;;;5.90;;
17592;SDS011;8915;51.760;14.300;2022-09-29T07:24:59;12.83;;;6.63;;
17592;SDS011;8915;51.760;14.300;2022-09-29T07:27:26;8.80;;;5.70;;
17592;SDS011;8915;51.760;14.300;2022-09-29T07:29:53;13.60;;;7.00;;
17592;SDS011;8915;51.760;14.300;2022-09-29T07:32:19;10.60;;;6.10;;
17592;SDS011;8915;51.760;14.300;2022-09-29T07:34:45;13.87;;;6.50;;
17592;SDS011;8915;51.760;14.300;2022-09-29T07:37:12;18.20;;;8.87;;
17592;SDS011;8915;51.760;14.300;2022-09-29T07:39:40;20.70;;;10.13;;
17592;SDS011;8915;51.760;14.300;2022-09-29T07:42:06;16.33;;;9.40;;
17592;SDS011;8915;51.760;14.300;2022-09-29T07:44:32;14.30;;;7.37;;
17592;SDS011;8915;51.760;14.300;2022-09-29T07:46:59;13.20;;;6.57;;
17592;SDS011;8915;51.760;14.300;2022-09-29T07:49:25;14.80;;;5.97;;
17592;SDS011;8915;51.760;14.300;2022-09-29T07:51:52;13.70;;;6.47;;
17592;SDS011;8915;51.760;14.300;2022-09-29T07:54:18;11.03;;;6.10;;
17592;SDS011;8915;51.760;14.300;2022-09-29T07:56:46;13.03;;;6.57;;
17592;SDS011;8915;51.760;14.300;2022-09-29T07:59:12;14.70;;;7.47;;
17592;SDS011;8915;51.760;14.300;2022-09-29T08:01:39;12.53;;;6.90;;
17592;SDS011;8915;51.760;14.300;2022-09-29T08:04:05;13.20;;;6.37;;
17592;SDS011;8915;51.760;14.300;2022-09-29T08:06:31;13.13;;;6.43;;
17592;SDS011;8915;51.760;14.300;2022-09-29T08:08:58;11.50;;;6.50;;
17592;SDS011;8915;51.760;14.300;2022-09-29T08:11:26;12.80;;;6.50;;
17592;SDS011;8915;51.760;14.300;2022-09-29T08:13:54;17.13;;;8.17;;
17592;SDS011;8915;51.760;14.300;2022-09-29T08:16:20;13.87;;;7.23;;
17592;SDS011;8915;51.760;14.300;2022-09-29T08:18:47;19.37;;;7.37;;
17592;SDS011;8915;51.760;14.300;2022-09-29T08:21:14;16.33;;;8.67;;
17592;SDS011;8915;51.760;14.300;2022-09-29T08:23:41;19.60;;;8.13;;
17592;SDS011;8915;51.760;14.300;2022-09-29T08:26:09;18.33;;;8.27;;
17592;SDS011;8915;51.760;14.300;2022-09-29T08:28:38;18.37;;;8.53;;
17592;SDS011;8915;51.760;14.300;2022-09-29T08:31:08;19.60;;;9.07;;
17592;SDS011;8915;51.760;14.300;2022-09-29T08:33:38;18.63;;;8.20;;
17592;SDS011;8915;51.760;14.300;2022-09-29T08:36:04;18.20;;;8.70;;
17592;SDS011;8915;51.760;14.300;2022-09-29T08:38:39;16.27;;;8.03;;
17592;SDS011;8915;51.760;14.300;2022-09-29T08:41:09;17.27;;;7.90;;
17592;SDS011;8915;51.760;14.300;2022-09-29T08:43:44;16.13;;;8.00;;
17592;SDS011;8915;51.760;14.300;2022-09-29T08:46:17;17.03;;;8.27;;
17592;SDS011;8915;51.760;14.300;2022-09-29T08:48:49;12.93;;;7.43;;
17592;SDS011;8915;51.760;14.300;2022-09-29T08:51:19;14.70;;;8.20;;
17592;SDS011;8915;51.760;14.300;2022-09-29T08:53:52;13.43;;;7.47;;
17592;SDS011;8915;51.760;14.300;2022-09-29T08:56:22;12.73;;;7.17;;
17592;SDS011;8915;51.760;14.300;2022-09-29T08:58:51;12.67;;;6.90;;
17592;SDS011;8915;51.760;14.300;2022-09-29T09:01:21;12.17;;;6.70;;
17592;SDS011;8915;51.760;14.300;2022-09-29T09:07:04;11.83;;;6.57;;
17592;SDS011;8915;51.760;14.300;2022-09-29T09:09:43;12.80;;;6.00;;
17592;SDS011;8915;51.760;14.300;2022-09-29T09:12:21;10.77;;;6.13;;
17592;SDS011;8915;51.760;14.300;2022-09-29T09:15:12;10.03;;;6.07;;
17592;SDS011;8915;51.760;14.300;2022-09-29T09:17:52;9.23;;;6.37;;
17592;SDS011;8915;51.760;14.300;2022-09-29T09:20:31;10.77;;;6.77;;
17592;SDS011;8915;51.760;14.300;2022-09-29T09:23:01;7.60;;;5.10;;
17592;SDS011;8915;51.760;14.300;2022-09-29T09:25:34;6.43;;;4.57;;
17592;SDS011;8915;51.760;14.300;2022-09-29T09:28:07;6.27;;;4.07;;
17592;SDS011;8915;51.760;14.300;2022-09-29T09:30:40;7.60;;;3.93;;
17592;SDS011;8915;51.760;14.300;2022-09-29T09:33:15;5.53;;;3.47;;
17592;SDS011;8915;51.760;14.300;2022-09-29T09:35:48;4.00;;;3.10;;
17592;SDS011;8915;51.760;14.300;2022-09-29T09:38:18;4.53;;;3.10;;
17592;SDS011;8915;51.760;14.300;2022-09-29T09:40:49;7.83;;;4.77;;
17592;SDS011;8915;51.760;14.300;2022-09-29T09:43:20;8.23;;;4.80;;
17592;SDS011;8915;51.760;14.300;2022-09-29T09:45:53;5.57;;;2.37;;
17592;SDS011;8915;51.760;14.300;2022-09-29T09:48:27;4.30;;;2.23;;
17592;SDS011;8915;51.760;14.300;2022-09-29T09:50:58;3.33;;;2.30;;
17592;SDS011;8915;51.760;14.300;2022-09-29T09:53:28;2.73;;;1.70;;
17592;SDS011;8915;51.760;14.300;2022-09-29T09:56:03;2.27;;;1.90;;
17592;SDS011;8915;51.760;14.300;2022-09-29T09:58:51;2.97;;;2.17;;
17592;SDS011;8915;51.760;14.300;2022-09-29T10:01:26;4.60;;;2.17;;
17592;SDS011;8915;51.760;14.300;2022-09-29T10:03:54;4.53;;;2.73;;
17592;SDS011;8915;51.760;14.300;2022-09-29T10:06:23;2.80;;;2.20;;
17592;SDS011;8915;51.760;14.300;2022-09-29T10:08:50;2.57;;;1.73;;
17592;SDS011;8915;51.760;14.300;2022-09-29T10:11:21;1.90;;;1.60;;
17592;SDS011;8915;51.760;14.300;2022-09-29T10:13:49;3.23;;;2.30;;
17592;SDS011;8915;51.760;14.300;2022-09-29T10:16:24;4.73;;;2.93;;
17592;SDS011;8915;51.760;14.300;2022-09-29T10:18:57;5.93;;;2.73;;
17592;SDS011;8915;51.760;14.300;2022-09-29T10:21:33;3.73;;;2.73;;
17592;SDS011;8915;51.760;14.300;2022-09-29T10:24:02;2.70;;;2.33;;
17592;SDS011;8915;51.760;14.300;2022-09-29T10:26:32;3.63;;;2.60;;
17592;SDS011;8915;51.760;14.300;2022-09-29T10:29:01;4.17;;;2.77;;
17592;SDS011;8915;51.760;14.300;2022-09-29T10:31:41;4.07;;;3.13;;
17592;SDS011;8915;51.760;14.300;2022-09-29T10:34:14;6.23;;;2.77;;
17592;SDS011;8915;51.760;14.300;2022-09-29T10:36:47;4.37;;;2.73;;
17592;SDS011;8915;51.760;14.300;2022-09-29T10:39:28;7.37;;;3.23;;
17592;SDS011;8915;51.760;14.300;2022-09-29T10:41:56;3.37;;;2.50;;
17592;SDS011;8915;51.760;14.300;2022-09-29T10:44:23;4.30;;;2.20;;
17592;SDS011;8915;51.760;14.300;2022-09-29T10:46:56;3.67;;;2.40;;
17592;SDS011;8915;51.760;14.300;2022-09-29T10:49:25;4.80;;;2.83;;
17592;SDS011;8915;51.760;14.300;2022-09-29T10:51:54;4.17;;;2.67;;
17592;SDS011;8915;51.760;14.300;2022-09-29T10:54:24;3.53;;;2.73;;
17592;SDS011;8915;51.760;14.300;2022-09-29T10:56:53;4.87;;;3.23;;
17592;SDS011;8915;51.760;14.300;2022-09-29T10:59:20;4.43;;;3.60;;
17592;SDS011;8915;51.760;14.300;2022-09-29T11:01:49;3.47;;;2.63;;
17592;SDS011;8915;51.760;14.300;2022-09-29T11:04:18;3.93;;;3.20;;
17592;SDS011;8915;51.760;14.300;2022-09-29T11:06:50;3.53;;;2.43;;
17592;SDS011;8915;51.760;14.300;2022-09-29T11:09:28;4.33;;;3.00;;
17592;SDS011;8915;51.760;14.300;2022-09-29T11:11:56;5.03;;;2.80;;
17592;SDS011;8915;51.760;14.300;2022-09-29T11:14:24;4.13;;;2.80;;
17592;SDS011;8915;51.760;14.300;2022-09-29T11:16:52;3.77;;;2.93;;
17592;SDS011;8915;51.760;14.300;2022-09-29T11:19:20;3.83;;;2.87;;
17592;SDS011;8915;51.760;14.300;2022-09-29T11:21:58;4.07;;;2.50;;
17592;SDS011;8915;51.760;14.300;2022-09-29T11:24:42;3.50;;;2.67;;
17592;SDS011;8915;51.760;14.300;2022-09-29T11:27:26;3.20;;;2.37;;
17592;SDS011;8915;51.760;14.300;2022-09-29T11:30:04;3.27;;;2.50;;
17592;SDS011;8915;51.760;14.300;2022-09-29T11:32:40;2.83;;;2.30;;
17592;SDS011;8915;51.760;14.300;2022-09-29T11:35:32;3.47;;;2.50;;
17592;SDS011;8915;51.760;14.300;2022-09-29T11:38:17;5.43;;;3.00;;
17592;SDS011;8915;51.760;14.300;2022-09-29T11:40:58;4.03;;;2.47;;
17592;SDS011;8915;51.760;14.300;2022-09-29T11:43:40;4.83;;;3.27;;
17592;SDS011;8915;51.760;14.300;2022-09-29T11:46:13;3.47;;;2.63;;
17592;SDS011;8915;51.760;14.300;2022-09-29T11:48:58;4.17;;;2.83;;
17592;SDS011;8915;51.760;14.300;2022-09-29T11:51:37;5.60;;;3.17;;
17592;SDS011;8915;51.760;14.300;2022-09-29T11:54:20;4.40;;;3.13;;
17592;SDS011;8915;51.760;14.300;2022-09-29T11:56:58;4.63;;;3.03;;
17592;SDS011;8915;51.760;14.300;2022-09-29T11:59:33;3.17;;;2.30;;
17592;SDS011;8915;51.760;14.300;2022-09-29T12:02:18;2.47;;;2.00;;
17592;SDS011;8915;51.760;14.300;2022-09-29T12:05:08;2.47;;;1.90;;
17592;SDS011;8915;51.760;14.300;2022-09-29T12:07:44;1.83;;;1.67;;
17592;SDS011;8915;51.760;14.300;2022-09-29T12:10:28;1.83;;;1.60;;
17592;SDS011;8915;51.760;14.300;2022-09-29T12:13:09;3.43;;;1.90;;
17592;SDS011;8915;51.760;14.300;2022-09-29T12:15:52;2.10;;;1.83;;
17592;SDS011;8915;51.760;14.300;2022-09-29T12:18:22;2.50;;;1.80;;
17592;SDS011;8915;51.760;14.300;2022-09-29T12:20:53;1.80;;;1.60;;
17592;SDS011;8915;51.760;14.300;2022-09-29T12:23:22;1.93;;;1.50;;
17592;SDS011;8915;51.760;14.300;2022-09-29T12:25:55;2.60;;;1.80;;
17592;SDS011;8915;51.760;14.300;2022-09-29T12:28:26;2.33;;;1.80;;
17592;SDS011;8915;51.760;14.300;2022-09-29T12:30:56;1.73;;;1.40;;
17592;SDS011;8915;51.760;14.300;2022-09-29T12:33:25;1.80;;;1.50;;
17592;SDS011;8915;51.760;14.300;2022-09-29T12:36:01;1.87;;;1.57;;
17592;SDS011;8915;51.760;14.300;2022-09-29T12:38:55;2.77;;;1.30;;
17592;SDS011;8915;51.760;14.300;2022-09-29T12:41:29;1.63;;;1.50;;
17592;SDS011;8915;51.760;14.300;2022-09-29T12:44:03;1.77;;;1.30;;
17592;SDS011;8915;51.760;14.300;2022-09-29T12:46:37;1.97;;;1.60;;
17592;SDS011;8915;51.760;14.300;2022-09-29T12:49:13;1.30;;;1.20;;
17592;SDS011;8915;51.760;14.300;2022-09-29T12:51:44;1.53;;;1.23;;
17592;SDS011;8915;51.760;14.300;2022-09-29T12:54:13;1.23;;;1.03;;
17592;SDS011;8915;51.760;14.300;2022-09-29T12:56:49;1.47;;;1.10;;
17592;SDS011;8915;51.760;14.300;2022-09-29T12:59:24;2.50;;;1.80;;
17592;SDS011;8915;51.760;14.300;2022-09-29T13:01:57;2.13;;;1.57;;
17592;SDS011;8915;51.760;14.300;2022-09-29T13:04:40;19.33;;;10.73;;
17592;SDS011;8915;51.760;14.300;2022-09-29T13:07:26;1.60;;;1.50;;
17592;SDS011;8915;51.760;14.300;2022-09-29T13:10:15;1.00;;;0.90;;
17592;SDS011;8915;51.760;14.300;2022-09-29T13:13:02;1.00;;;1.00;;
17592;SDS011;8915;51.760;14.300;2022-09-29T13:16:02;1.10;;;1.00;;
17592;SDS011;8915;51.760;14.300;2022-09-29T13:18:52;0.83;;;0.80;;
17592;SDS011;8915;51.760;14.300;2022-09-29T13:21:38;0.90;;;0.83;;
17592;SDS011;8915;51.760;14.300;2022-09-29T13:24:18;1.27;;;0.90;;
17592;SDS011;8915;51.760;14.300;2022-09-29T13:27:08;1.00;;;0.97;;
17592;SDS011;8915;51.760;14.300;2022-09-29T13:29:47;0.73;;;0.73;;
17592;SDS011;8915;51.760;14.300;2022-09-29T13:32:18;1.20;;;0.97;;
17592;SDS011;8915;51.760;14.300;2022-09-29T13:34:46;0.80;;;0.80;;
17592;SDS011;8915;51.760;14.300;2022-09-29T13:37:17;1.00;;;0.90;;
17592;SDS011;8915;51.760;14.300;2022-09-29T13:39:50;1.77;;;1.20;;
17592;SDS011;8915;51.760;14.300;2022-09-29T13:42:25;1.33;;;1.00;;
17592;SDS011;8915;51.760;14.300;2022-09-29T13:45:13;1.20;;;0.97;;
17592;SDS011;8915;51.760;14.300;2022-09-29T13:47:58;1.10;;;1.00;;
17592;SDS011;8915;51.760;14.300;2022-09-29T13:50:39;1.23;;;0.90;;
17592;SDS011;8915;51.760;14.300;2022-09-29T13:53:26;0.80;;;0.80;;
17592;SDS011;8915;51.760;14.300;2022-09-29T13:56:08;1.83;;;0.90;;
17592;SDS011;8915;51.760;14.300;2022-09-29T13:58:37;0.80;;;0.80;;
17592;SDS011;8915;51.760;14.300;2022-09-29T14:01:29;1.37;;;1.27;;
17592;SDS011;8915;51.760;14.300;2022-09-29T14:03:57;0.80;;;0.80;;
17592;SDS011;8915;51.760;14.300;2022-09-29T14:07:00;1.10;;;1.00;;
17592;SDS011;8915;51.760;14.300;2022-09-29T14:09:29;2.10;;;1.90;;
17592;SDS011;8915;51.760;14.300;2022-09-29T14:11:58;1.80;;;1.50;;
17592;SDS011;8915;51.760;14.300;2022-09-29T14:14:29;0.90;;;0.87;;
17592;SDS011;8915;51.760;14.300;2022-09-29T14:17:01;1.10;;;1.00;;
17592;SDS011;8915;51.760;14.300;2022-09-29T14:19:35;0.80;;;0.80;;
17592;SDS011;8915;51.760;14.300;2022-09-29T14:25:27;0.80;;;0.80;;
17592;SDS011;8915;51.760;14.300;2022-09-29T14:31:15;1.47;;;1.20;;
17592;SDS011;8915;51.760;14.300;2022-09-29T14:33:47;3.10;;;2.80;;
17592;SDS011;8915;51.760;14.300;2022-09-29T14:36:17;0.93;;;0.93;;
17592;SDS011;8915;51.760;14.300;2022-09-29T14:38:47;1.10;;;1.00;;
17592;SDS011;8915;51.760;14.300;2022-09-29T14:41:23;1.00;;;1.00;;
17592;SDS011;8915;51.760;14.300;2022-09-29T14:43:52;1.13;;;1.03;;
17592;SDS011;8915;51.760;14.300;2022-09-29T14:46:26;1.80;;;1.70;;
17592;SDS011;8915;51.760;14.300;2022-09-29T14:52:45;1.40;;;0.70;;
17592;SDS011;8915;51.760;14.300;2022-09-29T14:55:22;0.93;;;0.70;;
17592;SDS011;8915;51.760;14.300;2022-09-29T14:57:59;0.80;;;0.80;;
17592;SDS011;8915;51.760;14.300;2022-09-29T15:00:42;0.67;;;0.67;;
17592;SDS011;8915;51.760;14.300;2022-09-29T15:03:22;2.67;;;2.13;;
17592;SDS011;8915;51.760;14.300;2022-09-29T15:06:03;2.70;;;1.97;;
17592;SDS011;8915;51.760;14.300;2022-09-29T15:08:32;1.93;;;1.43;;
17592;SDS011;8915;51.760;14.300;2022-09-29T15:11:00;1.70;;;1.23;;
17592;SDS011;8915;51.760;14.300;2022-09-29T15:13:28;1.10;;;1.00;;
17592;SDS011;8915;51.760;14.300;2022-09-29T15:15:57;1.20;;;0.80;;
17592;SDS011;8915;51.760;14.300;2022-09-29T15:18:33;1.00;;;0.90;;
17592;SDS011;8915;51.760;14.300;2022-09-29T15:21:18;1.40;;;1.27;;
17592;SDS011;8915;51.760;14.300;2022-09-29T15:24:01;1.00;;;0.90;;
17592;SDS011;8915;51.760;14.300;2022-09-29T15:26:41;8.90;;;6.17;;
17592;SDS011;8915;51.760;14.300;2022-09-29T15:29:10;5.33;;;3.17;;